createdAt,value
2018-05-18T00:01:57.822Z,19.67
2018-05-18T00:04:24.319Z,18.63
2018-05-18T00:06:50.507Z,17.67
2018-05-18T00:09:19.604Z,17.50
2018-05-18T00:11:45.775Z,19.47
2018-05-18T00:14:12.505Z,20.33
2018-05-18T00:16:38.665Z,17.77
2018-05-18T00:19:04.964Z,17.67
2018-05-18T00:21:31.245Z,18.47
2018-05-18T00:23:57.632Z,18.63
2018-05-18T00:26:23.792Z,17.73
2018-05-18T00:28:50.034Z,17.37
2018-05-18T00:31:16.337Z,19.27
2018-05-18T00:33:42.676Z,20.23
2018-05-18T00:36:08.933Z,22.00
2018-05-18T00:38:35.244Z,20.73
2018-05-18T00:41:01.464Z,20.43
2018-05-18T00:43:27.651Z,24.07
2018-05-18T00:45:57.720Z,20.30
2018-05-18T00:48:23.837Z,19.33
2018-05-18T00:50:49.941Z,19.50
2018-05-18T00:53:16.095Z,19.83
2018-05-18T00:55:42.446Z,20.93
2018-05-18T00:58:08.679Z,20.63
2018-05-18T01:00:34.783Z,22.73
2018-05-18T01:03:00.957Z,20.87
2018-05-18T01:05:27.054Z,18.43
2018-05-18T01:07:53.775Z,18.03
2018-05-18T01:10:20.113Z,16.90
2018-05-18T01:12:46.248Z,17.90
2018-05-18T01:15:12.429Z,19.63
2018-05-18T01:17:41.717Z,19.03
2018-05-18T01:20:07.867Z,16.73
2018-05-18T01:22:34.110Z,16.07
2018-05-18T01:25:00.469Z,17.67
2018-05-18T01:27:27.378Z,15.67
2018-05-18T01:29:53.781Z,15.63
2018-05-18T01:32:19.930Z,17.53
2018-05-18T01:34:46.076Z,16.63
2018-05-18T01:37:12.506Z,17.00
2018-05-18T01:39:39.672Z,18.73
2018-05-18T01:42:05.841Z,17.47
2018-05-18T01:44:32.193Z,17.90
2018-05-18T01:47:01.414Z,16.20
2018-05-18T01:49:28.357Z,17.13
2018-05-18T01:51:54.484Z,15.27
2018-05-18T01:54:20.693Z,17.10
2018-05-18T01:56:46.879Z,17.23
2018-05-18T01:59:17.009Z,15.30
2018-05-18T02:01:43.176Z,16.90
2018-05-18T02:04:09.721Z,16.10
2018-05-18T02:06:41.062Z,16.27
2018-05-18T02:09:07.200Z,18.60
2018-05-18T02:11:34.085Z,18.33
2018-05-18T02:14:00.247Z,19.60
2018-05-18T02:16:26.363Z,19.17
2018-05-18T02:18:52.573Z,19.50
2018-05-18T02:21:18.719Z,17.93
2018-05-18T02:23:45.632Z,18.27
2018-05-18T02:26:11.788Z,17.53
2018-05-18T02:28:37.938Z,15.33
2018-05-18T02:31:04.077Z,15.13
2018-05-18T02:33:30.189Z,18.43
2018-05-18T02:35:56.581Z,18.23
2018-05-18T02:38:22.728Z,17.87
2018-05-18T02:40:49.249Z,18.93
2018-05-18T02:43:15.389Z,21.77
2018-05-18T02:45:41.616Z,19.37
2018-05-18T02:48:07.877Z,20.83
2018-05-18T02:50:34.933Z,18.77
2018-05-18T02:53:02.300Z,19.27
2018-05-18T02:55:28.551Z,20.83
2018-05-18T02:57:54.665Z,20.83
2018-05-18T03:00:20.863Z,20.60
2018-05-18T03:02:47.732Z,19.80
2018-05-18T03:05:13.912Z,19.53
2018-05-18T03:07:40.410Z,149.67
2018-05-18T03:10:06.629Z,25.43
2018-05-18T03:12:32.887Z,198.63
2018-05-18T03:14:59.033Z,370.63
2018-05-18T03:17:25.265Z,56.33
2018-05-18T03:19:52.215Z,52.20
2018-05-18T03:22:19.136Z,64.00
2018-05-18T03:24:45.278Z,213.20
2018-05-18T03:27:12.478Z,283.80
2018-05-18T03:29:38.638Z,201.60
2018-05-18T03:32:04.743Z,184.47
2018-05-18T03:34:31.295Z,67.33
2018-05-18T03:36:57.429Z,114.63
2018-05-18T03:39:24.022Z,263.77
2018-05-18T03:41:50.186Z,153.03
2018-05-18T03:44:16.342Z,204.70
2018-05-18T03:46:42.486Z,130.00
2018-05-18T03:49:08.729Z,110.30
2018-05-18T03:51:34.787Z,43.87
2018-05-18T03:54:00.989Z,46.90
2018-05-18T03:56:27.116Z,23.87
2018-05-18T03:58:53.379Z,21.70
2018-05-18T04:01:31.847Z,26.67
2018-05-18T04:04:10.725Z,25.20
2018-05-18T04:06:49.948Z,24.23
2018-05-18T04:09:16.131Z,27.60
2018-05-18T04:11:42.269Z,22.73
2018-05-18T04:14:08.421Z,22.87
2018-05-18T04:16:34.593Z,21.67
2018-05-18T04:19:00.745Z,26.47
2018-05-18T04:21:27.458Z,18.70
2018-05-18T04:23:53.639Z,21.10
2018-05-18T04:26:19.741Z,19.07
2018-05-18T04:28:45.859Z,28.17
2018-05-18T04:31:11.967Z,20.63
2018-05-18T04:33:38.499Z,20.17
2018-05-18T04:36:04.960Z,23.83
2018-05-18T04:38:31.075Z,21.50
2018-05-18T04:40:57.202Z,23.43
2018-05-18T04:43:23.399Z,21.17
2018-05-18T04:45:49.486Z,29.40
2018-05-18T04:48:15.649Z,35.73
2018-05-18T04:50:41.814Z,34.60
2018-05-18T04:53:14.622Z,80.33
2018-05-18T04:55:40.817Z,43.13
2018-05-18T04:58:07.248Z,133.63
2018-05-18T05:00:33.407Z,109.93
2018-05-18T05:02:59.536Z,102.57
2018-05-18T05:05:25.748Z,109.73
2018-05-18T05:07:51.982Z,103.03
2018-05-18T05:10:18.225Z,36.33
2018-05-18T05:12:44.444Z,36.43
2018-05-18T05:15:11.141Z,42.20
2018-05-18T05:17:37.207Z,26.47
2018-05-18T05:20:03.368Z,115.57
2018-05-18T05:22:29.659Z,139.17
2018-05-18T05:24:56.205Z,47.20
2018-05-18T05:27:23.222Z,32.23
2018-05-18T05:29:49.404Z,39.30
2018-05-18T05:32:15.562Z,28.80
2018-05-18T05:34:41.750Z,38.90
2018-05-18T05:37:07.975Z,27.10
2018-05-18T05:39:34.207Z,74.13
2018-05-18T05:42:00.391Z,70.87
2018-05-18T05:44:26.577Z,131.63
2018-05-18T05:46:52.817Z,60.73
2018-05-18T05:49:18.991Z,43.10
2018-05-18T05:51:48.914Z,35.67
2018-05-18T05:54:15.853Z,26.83
2018-05-18T05:56:42.174Z,27.23
2018-05-18T05:59:09.394Z,28.60
2018-05-18T06:01:35.697Z,26.90
2018-05-18T06:04:02.016Z,29.03
2018-05-18T06:06:28.235Z,81.47
2018-05-18T06:08:54.445Z,28.57
2018-05-18T06:11:20.591Z,46.07
2018-05-18T06:13:48.400Z,16.80
2018-05-18T06:16:14.919Z,14.13
2018-05-18T06:18:41.256Z,13.63
2018-05-18T06:21:07.389Z,14.63
2018-05-18T06:26:23.611Z,19.73
2018-05-18T06:28:50.104Z,156.23
2018-05-18T06:31:16.175Z,15.07
2018-05-18T06:33:42.654Z,16.20
2018-05-18T06:36:08.809Z,28.30
2018-05-18T06:38:34.979Z,73.40
2018-05-18T06:41:01.142Z,35.67
2018-05-18T06:43:30.822Z,24.27
2018-05-18T06:45:58.948Z,19.53
2018-05-18T06:48:25.145Z,14.87
2018-05-18T06:50:51.297Z,16.33
2018-05-18T06:53:17.511Z,21.60
2018-05-18T06:55:43.833Z,19.03
2018-05-18T06:58:09.954Z,38.03
2018-05-18T07:00:36.080Z,22.10
2018-05-18T07:03:02.293Z,16.87
2018-05-18T07:05:28.576Z,18.70
2018-05-18T07:07:54.735Z,16.20
2018-05-18T07:10:20.844Z,16.50
2018-05-18T07:12:47.090Z,17.87
2018-05-18T07:15:14.030Z,18.40
2018-05-18T07:17:40.180Z,15.10
2018-05-18T07:20:06.389Z,16.53
2018-05-18T07:22:32.511Z,17.30
2018-05-18T07:24:59.570Z,16.47
2018-05-18T07:27:25.785Z,16.60
2018-05-18T07:29:51.897Z,17.20
2018-05-18T07:32:18.484Z,16.43
2018-05-18T07:34:44.717Z,17.13
2018-05-18T07:37:10.931Z,18.33
2018-05-18T07:39:37.167Z,50.70
2018-05-18T07:42:03.318Z,16.30
2018-05-18T07:44:29.509Z,15.77
2018-05-18T07:46:55.672Z,18.67
2018-05-18T07:49:21.898Z,16.53
2018-05-18T07:51:48.379Z,17.03
2018-05-18T07:54:14.667Z,18.47
2018-05-18T07:56:41.278Z,19.20
2018-05-18T07:59:07.467Z,18.57
2018-05-18T08:01:34.017Z,19.20
2018-05-18T08:04:00.150Z,19.13
2018-05-18T08:06:26.305Z,18.63
2018-05-18T08:08:52.618Z,17.33
2018-05-18T08:11:19.000Z,17.80
2018-05-18T08:13:45.289Z,20.70
2018-05-18T08:16:11.649Z,25.23
2018-05-18T08:18:37.819Z,21.33
2018-05-18T08:21:04.189Z,19.83
2018-05-18T08:23:39.413Z,21.17
2018-05-18T08:26:05.777Z,18.47
2018-05-18T08:28:44.165Z,21.10
2018-05-18T08:31:10.575Z,19.47
2018-05-18T08:33:37.435Z,19.73
2018-05-18T08:36:03.729Z,17.67
2018-05-18T08:38:30.278Z,22.93
2018-05-18T08:43:28.888Z,21.93
2018-05-18T08:45:55.013Z,22.40
2018-05-18T08:48:21.197Z,21.13
2018-05-18T08:50:50.123Z,20.63
2018-05-18T08:53:16.244Z,26.57
2018-05-18T08:55:42.759Z,23.23
2018-05-18T08:58:08.973Z,22.53
2018-05-18T09:00:35.967Z,21.57
2018-05-18T09:03:02.479Z,20.97
2018-05-18T09:05:29.908Z,24.03
2018-05-18T09:07:56.105Z,24.17
2018-05-18T09:10:22.774Z,22.77
2018-05-18T09:12:49.654Z,24.13
2018-05-18T09:15:19.040Z,24.03
2018-05-18T09:17:45.299Z,24.77
2018-05-18T09:20:11.507Z,24.17
2018-05-18T09:22:37.640Z,26.17
2018-05-18T09:25:03.770Z,29.57
2018-05-18T09:27:30.667Z,25.30
2018-05-18T09:29:57.554Z,26.03
2018-05-18T09:32:23.700Z,24.00
2018-05-18T09:34:50.011Z,22.50
2018-05-18T09:37:16.190Z,22.77
2018-05-18T09:39:42.471Z,21.83
2018-05-18T09:42:08.748Z,22.07
2018-05-18T09:44:35.136Z,20.57
2018-05-18T09:47:01.439Z,21.37
2018-05-18T09:49:27.618Z,22.57
2018-05-18T09:51:54.512Z,22.50
2018-05-18T09:54:20.815Z,25.13
2018-05-18T09:56:47.062Z,23.73
2018-05-18T09:59:13.273Z,24.17
2018-05-18T10:01:39.700Z,24.30
2018-05-18T10:04:06.588Z,25.50
2018-05-18T10:06:32.806Z,24.47
2018-05-18T10:08:58.927Z,23.90
2018-05-18T10:11:25.153Z,25.57
2018-05-18T10:13:51.280Z,22.43
2018-05-18T10:16:17.509Z,20.97
2018-05-18T10:18:44.561Z,20.03
2018-05-18T10:21:10.911Z,22.40
2018-05-18T10:23:37.123Z,21.50
2018-05-18T10:26:03.352Z,19.43
2018-05-18T10:28:29.583Z,23.10
2018-05-18T10:30:55.933Z,19.63
2018-05-18T10:33:22.127Z,19.10
2018-05-18T10:35:48.351Z,19.67
2018-05-18T10:38:14.545Z,19.73
2018-05-18T10:40:40.813Z,18.37
2018-05-18T10:43:06.984Z,20.10
2018-05-18T10:45:33.169Z,17.87
2018-05-18T10:47:59.404Z,16.93
2018-05-18T10:50:25.540Z,17.43
2018-05-18T10:52:51.676Z,17.23
2018-05-18T10:55:17.941Z,18.60
2018-05-18T10:57:44.208Z,17.33
2018-05-18T11:00:10.438Z,17.50
2018-05-18T11:02:36.781Z,17.70
2018-05-18T11:05:02.856Z,20.60
2018-05-18T11:07:29.122Z,17.40
2018-05-18T11:09:58.784Z,16.03
2018-05-18T11:12:24.945Z,19.33
2018-05-18T11:14:51.179Z,16.30
2018-05-18T11:17:17.608Z,16.77
2018-05-18T11:19:45.930Z,16.43
2018-05-18T11:22:12.117Z,17.80
2018-05-18T11:24:38.305Z,17.97
2018-05-18T11:27:04.445Z,15.37
2018-05-18T11:29:31.274Z,18.60
2018-05-18T11:32:00.505Z,13.37
2018-05-18T11:34:28.277Z,13.13
2018-05-18T11:36:54.808Z,13.30
2018-05-18T11:39:20.941Z,17.50
2018-05-18T11:41:47.353Z,19.93
2018-05-18T11:44:14.209Z,17.40
2018-05-18T11:46:41.762Z,13.60
2018-05-18T11:49:07.954Z,15.47
2018-05-18T11:51:34.421Z,14.43
2018-05-18T11:54:00.850Z,15.50
2018-05-18T11:56:26.985Z,15.17
2018-05-18T11:58:53.118Z,15.87
2018-05-18T12:01:19.298Z,16.27
2018-05-18T12:03:45.532Z,14.90
2018-05-18T12:06:12.486Z,21.27
2018-05-18T12:08:38.728Z,14.80
2018-05-18T12:11:04.880Z,14.97
2018-05-18T12:13:31.088Z,16.40
2018-05-18T12:15:57.281Z,16.40
2018-05-18T12:18:23.464Z,13.77
2018-05-18T12:20:56.158Z,14.40
2018-05-18T12:23:23.143Z,16.93
2018-05-18T12:25:49.304Z,12.70
2018-05-18T12:28:15.443Z,12.67
2018-05-18T12:30:41.611Z,15.33
2018-05-18T12:33:08.041Z,16.07
2018-05-18T12:35:34.567Z,12.13
2018-05-18T12:38:01.479Z,11.37
2018-05-18T12:40:27.638Z,12.27
2018-05-18T12:42:58.876Z,12.00
2018-05-18T12:45:25.083Z,12.63
2018-05-18T12:47:51.255Z,9.67
2018-05-18T12:50:17.507Z,10.43
2018-05-18T12:52:43.765Z,11.87
2018-05-18T12:55:09.981Z,13.40
2018-05-18T12:57:38.759Z,11.77
2018-05-18T13:00:04.921Z,10.13
2018-05-18T13:02:31.830Z,10.60
2018-05-18T13:04:57.984Z,9.50
2018-05-18T13:07:24.467Z,9.87
2018-05-18T13:09:50.641Z,11.40
2018-05-18T13:12:16.738Z,11.87
2018-05-18T13:14:42.900Z,10.80
2018-05-18T13:17:09.239Z,10.30
2018-05-18T13:19:35.363Z,11.47
2018-05-18T13:22:02.185Z,14.53
2018-05-18T13:24:28.311Z,12.80
2018-05-18T13:26:58.618Z,9.77
2018-05-18T13:29:24.866Z,11.57
2018-05-18T13:31:51.886Z,10.37
2018-05-18T13:34:18.303Z,15.43
2018-05-18T13:36:44.501Z,11.27
2018-05-18T13:39:10.921Z,12.77
2018-05-18T13:41:37.015Z,10.47
2018-05-18T13:44:03.231Z,9.77
2018-05-18T13:46:29.874Z,9.60
2018-05-18T13:48:56.176Z,7.90
2018-05-18T13:51:22.425Z,7.77
2018-05-18T13:53:48.548Z,8.93
2018-05-18T13:56:14.714Z,13.67
2018-05-18T13:58:41.248Z,9.10
2018-05-18T14:01:07.606Z,9.13
2018-05-18T14:03:34.281Z,9.10
2018-05-18T14:06:00.471Z,8.10
2018-05-18T14:08:27.026Z,6.43
2018-05-18T14:10:53.205Z,7.23
2018-05-18T14:13:19.481Z,7.27
2018-05-18T14:15:45.735Z,6.03
2018-05-18T14:18:11.952Z,7.13
2018-05-18T14:20:38.101Z,6.13
2018-05-18T14:23:04.206Z,7.47
2018-05-18T14:25:30.385Z,7.70
2018-05-18T14:27:56.575Z,6.20
2018-05-18T14:30:22.830Z,6.57
2018-05-18T14:32:48.983Z,6.20
2018-05-18T14:35:15.103Z,7.33
2018-05-18T14:37:41.244Z,6.37
2018-05-18T14:40:07.349Z,7.50
2018-05-18T14:42:33.595Z,5.47
2018-05-18T14:44:59.777Z,6.87
2018-05-18T14:47:26.686Z,6.20
2018-05-18T14:49:53.237Z,6.57
2018-05-18T14:52:19.437Z,6.43
2018-05-18T14:54:45.792Z,7.73
2018-05-18T14:57:12.229Z,8.43
2018-05-18T14:59:38.353Z,6.43
2018-05-18T15:02:04.525Z,9.40
2018-05-18T15:04:30.705Z,7.83
2018-05-18T15:06:56.880Z,7.23
2018-05-18T15:09:23.037Z,6.50
2018-05-18T15:11:49.145Z,7.57
2018-05-18T15:14:15.318Z,8.37
2018-05-18T15:16:41.526Z,7.57
2018-05-18T15:19:08.000Z,6.80
2018-05-18T15:21:34.961Z,8.80
2018-05-18T15:24:01.204Z,7.03
2018-05-18T15:26:27.821Z,8.07
2018-05-18T15:28:53.916Z,7.27
2018-05-18T15:31:20.245Z,7.33
2018-05-18T15:33:50.153Z,7.80
2018-05-18T15:36:18.179Z,7.80
2018-05-18T15:38:45.706Z,7.00
2018-05-18T15:41:11.812Z,6.47
2018-05-18T15:43:38.126Z,6.20
2018-05-18T15:46:04.247Z,6.03
2018-05-18T15:48:30.409Z,7.43
2018-05-18T15:50:56.622Z,6.70
2018-05-18T15:53:22.768Z,8.30
2018-05-18T15:55:48.925Z,7.17
2018-05-18T15:58:15.800Z,6.77
2018-05-18T16:00:43.487Z,7.70
2018-05-18T16:03:09.620Z,7.13
2018-05-18T16:05:35.760Z,7.20
2018-05-18T16:08:01.861Z,10.17
2018-05-18T16:10:28.128Z,8.63
2018-05-18T16:12:54.341Z,8.90
2018-05-18T16:15:20.422Z,7.30
2018-05-18T16:17:47.502Z,10.07
2018-05-18T16:20:13.699Z,9.07
2018-05-18T16:22:39.791Z,8.27
2018-05-18T16:25:05.916Z,6.50
2018-05-18T16:27:32.923Z,7.03
2018-05-18T16:30:01.086Z,6.73
2018-05-18T16:32:29.605Z,6.93
2018-05-18T16:34:56.548Z,7.27
2018-05-18T16:37:22.720Z,7.10
2018-05-18T16:39:49.629Z,7.47
2018-05-18T16:42:15.832Z,10.97
2018-05-18T16:44:41.979Z,7.53
2018-05-18T16:47:08.241Z,8.27
2018-05-18T16:49:34.333Z,20.73
2018-05-18T16:52:00.421Z,8.73
2018-05-18T16:54:26.663Z,9.03
2018-05-18T16:56:53.134Z,8.43
2018-05-18T16:59:19.237Z,11.17
2018-05-18T17:01:45.408Z,9.10
2018-05-18T17:04:11.553Z,12.53
2018-05-18T17:06:38.021Z,11.93
2018-05-18T17:09:04.436Z,11.10
2018-05-18T17:11:30.535Z,10.10
2018-05-18T17:13:57.531Z,9.87
2018-05-18T17:16:23.828Z,10.57
2018-05-18T17:18:49.976Z,11.37
2018-05-18T17:21:16.890Z,10.50
2018-05-18T17:23:43.313Z,12.23
2018-05-18T17:26:09.596Z,10.93
2018-05-18T17:28:35.737Z,11.83
2018-05-18T17:31:01.943Z,11.43
2018-05-18T17:33:28.384Z,15.57
2018-05-18T17:35:54.676Z,14.13
2018-05-18T17:38:21.208Z,14.43
2018-05-18T17:40:47.512Z,16.10
2018-05-18T17:43:13.645Z,14.27
2018-05-18T17:45:39.922Z,16.57
2018-05-18T17:48:06.421Z,15.37
2018-05-18T17:50:32.810Z,15.10
2018-05-18T17:52:58.978Z,16.47
2018-05-18T17:55:25.112Z,16.07
2018-05-18T17:57:51.640Z,12.37
2018-05-18T18:00:17.818Z,17.23
2018-05-18T18:02:44.206Z,14.10
2018-05-18T18:05:10.373Z,16.53
2018-05-18T18:07:36.535Z,14.77
2018-05-18T18:10:02.711Z,12.93
2018-05-18T18:12:28.940Z,14.20
2018-05-18T18:14:55.071Z,15.87
2018-05-18T18:17:21.273Z,14.57
2018-05-18T18:19:48.112Z,15.27
2018-05-18T18:22:14.839Z,15.33
2018-05-18T18:24:41.422Z,15.43
2018-05-18T18:27:08.071Z,13.17
2018-05-18T18:29:34.411Z,13.37
2018-05-18T18:32:00.588Z,13.13
2018-05-18T18:34:26.735Z,14.00
2018-05-18T18:36:53.025Z,15.23
2018-05-18T18:39:19.194Z,15.07
2018-05-18T18:41:45.906Z,16.77
2018-05-18T18:44:12.111Z,15.37
2018-05-18T18:46:38.381Z,12.17
2018-05-18T18:49:04.590Z,14.40
2018-05-18T18:51:31.153Z,13.20
2018-05-18T18:53:57.297Z,13.37
2018-05-18T18:56:23.504Z,11.53
2018-05-18T18:58:50.017Z,15.37
2018-05-18T19:01:16.132Z,12.67
2018-05-18T19:03:42.289Z,13.10
2018-05-18T19:06:08.600Z,12.17
2018-05-18T19:08:34.851Z,13.03
2018-05-18T19:11:00.984Z,16.43
2018-05-18T19:13:27.287Z,15.37
2018-05-18T19:15:53.795Z,15.33
2018-05-18T19:18:20.038Z,16.27
2018-05-18T19:20:46.195Z,15.07
2018-05-18T19:23:12.422Z,13.40
2018-05-18T19:25:38.648Z,12.90
2018-05-18T19:28:04.819Z,16.20
2018-05-18T19:30:31.149Z,14.70
2018-05-18T19:32:57.773Z,13.43
2018-05-18T19:35:24.799Z,15.53
2018-05-18T19:37:51.030Z,14.43
2018-05-18T19:40:17.957Z,14.33
2018-05-18T19:42:44.170Z,14.77
2018-05-18T19:45:10.357Z,13.07
2018-05-18T19:47:36.553Z,14.77
2018-05-18T19:50:02.801Z,13.83
2018-05-18T19:52:28.835Z,16.07
2018-05-18T19:54:54.960Z,16.47
2018-05-18T19:57:21.081Z,19.80
2018-05-18T19:59:47.497Z,16.63
2018-05-18T20:02:13.748Z,16.73
2018-05-18T20:04:40.152Z,15.70
2018-05-18T20:07:06.250Z,14.13
2018-05-18T20:09:32.674Z,15.10
2018-05-18T20:11:59.080Z,17.27
2018-05-18T20:14:25.130Z,16.10
2018-05-18T20:16:51.421Z,18.37
2018-05-18T20:19:17.554Z,16.10
2018-05-18T20:21:44.494Z,15.33
2018-05-18T20:24:10.669Z,14.53
2018-05-18T20:26:36.843Z,15.93
2018-05-18T20:29:02.990Z,15.97
2018-05-18T20:31:29.176Z,15.17
2018-05-18T20:33:55.445Z,18.60
2018-05-18T20:36:21.561Z,26.03
2018-05-18T20:38:48.283Z,17.77
2018-05-18T20:41:14.508Z,16.07
2018-05-18T20:43:41.030Z,17.90
2018-05-18T20:46:07.191Z,15.60
2018-05-18T20:48:33.369Z,16.20
2018-05-18T20:50:59.648Z,17.20
2018-05-18T20:53:25.775Z,17.73
2018-05-18T20:55:52.047Z,16.47
2018-05-18T20:58:18.449Z,18.80
2018-05-18T21:00:44.658Z,16.77
2018-05-18T21:03:11.300Z,21.23
2018-05-18T21:05:37.527Z,18.73
2018-05-18T21:08:03.652Z,18.43
2018-05-18T21:10:29.984Z,19.73
2018-05-18T21:12:56.134Z,20.00
2018-05-18T21:15:22.269Z,18.47
2018-05-18T21:17:48.517Z,15.70
2018-05-18T21:20:15.490Z,18.13
2018-05-18T21:22:41.656Z,20.73
2018-05-18T21:25:07.861Z,20.90
2018-05-18T21:27:34.019Z,18.90
2018-05-18T21:30:00.187Z,17.33
2018-05-18T21:32:26.337Z,18.93
2018-05-18T21:34:52.638Z,19.07
2018-05-18T21:37:18.777Z,23.43
2018-05-18T21:39:45.126Z,320.47
2018-05-18T21:42:11.251Z,84.13
2018-05-18T21:44:37.480Z,19.73
2018-05-18T21:47:03.660Z,22.03
2018-05-18T21:49:30.406Z,20.23
2018-05-18T21:51:57.362Z,22.60
2018-05-18T21:54:24.227Z,17.77
2018-05-18T21:56:50.666Z,18.17
2018-05-18T21:59:16.787Z,17.13
2018-05-18T22:01:42.929Z,20.67
2018-05-18T22:04:09.043Z,18.53
2018-05-18T22:06:35.234Z,18.67
2018-05-18T22:09:01.289Z,17.33
2018-05-18T22:11:27.451Z,64.90
2018-05-18T22:13:53.696Z,20.03
2018-05-18T22:16:19.850Z,21.17
2018-05-18T22:18:45.975Z,16.00
2018-05-18T22:21:12.187Z,18.43
2018-05-18T22:23:38.221Z,20.50
2018-05-18T22:26:04.401Z,17.60
2018-05-18T22:28:30.483Z,22.33
2018-05-18T22:30:56.593Z,21.30
2018-05-18T22:33:23.441Z,20.37
2018-05-18T22:35:49.500Z,19.80
2018-05-18T22:38:15.614Z,19.73
2018-05-18T22:40:41.743Z,20.03
2018-05-18T22:43:07.874Z,20.73
2018-05-18T22:45:34.016Z,19.13
2018-05-18T22:48:00.123Z,21.77
2018-05-18T22:50:26.248Z,24.83
2018-05-18T22:52:52.377Z,22.63
2018-05-18T22:55:18.595Z,19.40
2018-05-18T22:57:44.726Z,19.83
2018-05-18T23:00:13.598Z,17.87
2018-05-18T23:02:39.768Z,23.67
2018-05-18T23:05:05.843Z,18.30
2018-05-18T23:07:31.959Z,19.47
2018-05-18T23:09:58.091Z,15.67
2018-05-18T23:12:24.172Z,20.43
2018-05-18T23:14:50.291Z,15.60
2018-05-18T23:17:16.388Z,17.83
2018-05-18T23:19:42.907Z,16.67
2018-05-18T23:22:11.019Z,16.67
2018-05-18T23:24:37.145Z,15.53
2018-05-18T23:27:03.311Z,17.73
2018-05-18T23:29:29.550Z,15.93
2018-05-18T23:31:55.898Z,15.90
2018-05-18T23:34:21.938Z,13.97
2018-05-18T23:36:48.064Z,14.80
2018-05-18T23:39:14.248Z,14.13
2018-05-18T23:41:40.345Z,15.90
2018-05-18T23:44:06.437Z,16.77
2018-05-18T23:46:32.543Z,13.07
2018-05-18T23:48:58.769Z,16.83
2018-05-18T23:51:24.909Z,16.87
2018-05-18T23:53:50.988Z,16.33
2018-05-18T23:56:17.847Z,16.70
2018-05-18T23:58:43.948Z,19.53
